Time;durP1;ratioP1;P1;durP2;ratioP2;P2;SDS_P1;SDS_P2;PMS_P1;PMS_P2;Temp;Humidity;BMP_temperature;BMP_pressure;BME280_temperature;BME280_humidity;BME280_pressure;Samples;Min_cycle;Max_cycle;Signal;HPM_P1;HPM_P2
2021/01/06 00:10:58;;;;;;;9.60;5.35;;;;;;;1.83;100.00;100010.55;10288011;85;21156;-84
2021/01/06 00:26:03;;;;;;;10.67;5.63;;;;;;;1.72;100.00;100007.27;10287553;85;21593;-83
2021/01/06 00:41:07;;;;;;;10.70;6.45;;;;;;;1.77;100.00;100009.14;10364214;84;2069711;-83
2021/01/06 00:56:11;;;;;;;10.68;6.40;;;;;;;1.60;100.00;100013.13;10434866;84;21051;-82
2021/01/06 01:11:16;;;;;;;10.80;5.58;;;;;;;1.83;100.00;100020.45;10431664;84;21130;-81
2021/01/06 01:26:20;;;;;;;10.63;6.05;;;;;;;1.69;100.00;100013.91;10120522;84;21076;-82
2021/01/06 01:41:27;;;;;;;11.22;6.22;;;;;;;1.62;100.00;100015.16;10086032;88;21203;-81
2021/01/06 01:56:38;;;;;;;11.30;6.22;;;;;;;1.62;100.00;100015.16;10133434;86;95860;-81
2021/01/06 02:11:46;;;;;;;10.50;5.72;;;;;;;1.61;100.00;100018.66;10253287;85;21543;-81
2021/01/06 02:26:50;;;;;;;11.35;5.95;;;;;;;1.59;100.00;99999.81;10250403;86;21078;-81
2021/01/06 02:41:54;;;;;;;11.05;5.50;;;;;;;1.63;100.00;99991.79;10233576;85;21611;-81
2021/01/06 02:57:00;;;;;;;10.90;5.87;;;;;;;1.62;100.00;99981.54;10230634;85;423857;-84
2021/01/06 03:12:10;;;;;;;8.73;4.47;;;;;;;1.65;100.00;99994.32;10491903;83;21027;-81
2021/01/06 03:27:15;;;;;;;8.63;5.35;;;;;;;1.70;100.00;99994.87;10490080;83;205241;-83
2021/01/06 03:42:21;;;;;;;9.85;5.70;;;;;;;1.72;100.00;99989.16;10335937;83;2141887;-89
2021/01/06 03:57:27;;;;;;;10.17;5.70;;;;;;;1.48;100.00;99988.31;10310327;84;21126;-89
2021/01/06 04:12:31;;;;;;;8.90;5.37;;;;;;;1.65;100.00;99974.92;10231223;85;406646;-91
2021/01/06 04:27:35;;;;;;;9.45;5.70;;;;;;;1.30;100.00;99982.85;10344563;84;126232;-86
2021/01/06 04:42:39;;;;;;;9.33;5.70;;;;;;;1.25;100.00;99980.50;10415288;85;21141;-85
2021/01/06 04:57:54;;;;;;;8.15;4.87;;;;;;;1.25;100.00;99980.50;10305287;84;409518;-88
2021/01/06 05:13:03;;;;;;;14.47;7.37;;;;;;;1.33;100.00;99986.11;10190099;85;21156;-87
2021/01/06 05:28:13;;;;;;;14.28;8.13;;;;;;;1.36;100.00;99984.27;10092627;86;21065;-86
2021/01/06 05:43:53;;;;;;;20.43;15.40;;;;;;;1.40;100.00;99995.66;10154388;86;21135;-82
2021/01/06 05:59:04;;;;;;;43.65;17.82;;;;;;;1.37;100.00;99978.18;10213458;85;615730;-83
2021/01/06 06:14:44;;;;;;;96.67;36.73;;;;;;;1.29;100.00;99979.89;10172374;86;21164;-84
2021/01/06 06:29:55;;;;;;;35.15;18.23;;;;;;;1.52;100.00;99985.55;10337260;85;21031;-83
2021/01/06 06:45:03;;;;;;;13.53;6.95;;;;;;;1.35;100.00;99989.91;10300660;85;21062;-82
2021/01/06 07:00:17;;;;;;;34.88;16.90;;;;;;;1.35;100.00;99989.91;10318417;85;21079;-83
2021/01/06 07:15:28;;;;;;;54.35;24.52;;;;;;;1.42;100.00;100011.08;10612292;83;21082;-82
2021/01/06 07:30:36;;;;;;;139.82;54.88;;;;;;;1.33;100.00;100015.84;10603970;83;21051;-81
2021/01/06 07:45:44;;;;;;;91.65;40.00;;;;;;;1.40;100.00;100023.24;10409172;83;21096;-81
2021/01/06 08:00:56;;;;;;;245.37;108.60;;;;;;;1.47;100.00;100042.22;10197977;86;21043;-83
2021/01/06 08:16:16;;;;;;;165.68;83.35;;;;;;;1.48;100.00;100045.66;10158373;86;21201;-82
2021/01/06 08:31:22;;;;;;;177.43;67.00;;;;;;;1.36;100.00;100034.23;10171301;86;21044;-86
2021/01/06 08:46:30;;;;;;;389.47;123.00;;;;;;;1.36;100.00;100034.23;10107772;87;195500;-85
2021/01/06 09:01:39;;;;;;;67.55;29.25;;;;;;;1.58;100.00;100060.20;10116496;86;21174;-85
2021/01/06 09:16:48;;;;;;;157.85;60.20;;;;;;;1.52;100.00;100066.55;10211636;85;151779;-86
2021/01/06 09:31:56;;;;;;;95.77;39.30;;;;;;;1.57;100.00;100067.58;10360720;85;21443;-89
2021/01/06 09:47:05;;;;;;;261.02;71.60;;;;;;;1.70;100.00;100069.05;10348904;85;87382;-88
2021/01/06 10:02:20;;;;;;;61.05;26.23;;;;;;;1.72;100.00;100062.88;10367153;85;21053;-89
2021/01/06 10:17:29;;;;;;;49.70;24.40;;;;;;;1.72;100.00;100062.88;10346202;85;21139;-89
2021/01/06 10:32:46;;;;;;;95.53;33.90;;;;;;;1.79;100.00;100057.73;10221586;86;88439;-89
2021/01/06 10:47:52;;;;;;;55.10;24.98;;;;;;;2.00;100.00;100053.58;10391049;85;21125;-89
2021/01/06 11:03:31;;;;;;;899.25;359.70;;;;;;;2.08;100.00;100046.22;10384903;85;21230;-89
2021/01/06 11:18:48;;;;;;;75.25;37.15;;;;;;;1.91;100.00;100046.34;10364487;85;21074;-88
2021/01/06 11:33:55;;;;;;;62.10;27.23;;;;;;;1.97;100.00;100036.48;10309277;85;5182455;-88
2021/01/06 11:49:22;;;;;;;292.40;101.92;;;;;;;1.90;100.00;100036.46;10338538;85;21592;-89
2021/01/06 12:05:08;;;;;;;497.87;195.43;;;;;;;1.86;100.00;100016.86;10253129;84;21267;-82
2021/01/06 12:20:22;;;;;;;168.10;68.90;;;;;;;2.13;100.00;100002.80;9806981;82;646257;-82
2021/01/06 12:35:31;;;;;;;150.40;54.53;;;;;;;2.23;100.00;99985.44;9730330;90;21113;-84
2021/01/06 12:50:49;;;;;;;233.32;95.25;;;;;;;2.23;100.00;99995.80;9822907;84;3277109;-84
2021/01/06 13:06:00;;;;;;;105.20;40.23;;;;;;;2.35;100.00;99989.92;10055826;82;260409;-83
2021/01/06 13:21:18;;;;;;;114.43;41.00;;;;;;;2.27;100.00;99988.22;9518105;85;150104;-83
2021/01/06 13:36:28;;;;;;;175.97;55.20;;;;;;;2.29;100.00;99994.16;9956807;85;21892;-83
2021/01/06 13:51:48;;;;;;;287.72;93.00;;;;;;;2.23;100.00;100003.56;9982802;85;21598;-82
2021/01/06 14:06:59;;;;;;;426.95;151.53;;;;;;;2.20;100.00;100003.75;10300109;83;21501;-82
2021/01/06 14:22:08;;;;;;;420.38;145.45;;;;;;;1.95;100.00;100001.26;10283918;85;21603;-83
2021/01/06 14:37:19;;;;;;;217.10;83.50;;;;;;;1.89;100.00;100012.80;10035832;86;21112;-83
2021/01/06 14:52:27;;;;;;;268.82;123.87;;;;;;;1.83;100.00;100013.98;9704430;89;22310;-83
2021/01/06 15:07:37;;;;;;;225.15;94.50;;;;;;;1.79;100.00;100003.41;9649516;91;21192;-83
2021/01/06 15:22:43;;;;;;;381.20;153.23;;;;;;;1.78;100.00;100003.50;9655706;91;21654;-83
2021/01/06 15:37:50;;;;;;;387.33;176.82;;;;;;;1.80;100.00;99999.08;9655854;91;21160;-84
2021/01/06 15:53:15;;;;;;;246.53;101.78;;;;;;;1.76;100.00;99988.07;9661383;91;21133;-84
2021/01/06 16:08:23;;;;;;;260.80;115.22;;;;;;;1.76;100.00;99988.07;9970281;87;21213;-84
2021/01/06 16:23:30;;;;;;;254.65;102.15;;;;;;;1.73;100.00;99984.38;9957070;89;21145;-83
2021/01/06 16:38:36;;;;;;;200.13;69.70;;;;;;;1.73;100.00;99984.38;9963083;88;21126;-83
2021/01/06 16:53:41;;;;;;;193.05;74.00;;;;;;;1.71;100.00;99981.02;9957432;87;21095;-83
2021/01/06 17:08:46;;;;;;;171.68;54.10;;;;;;;1.70;100.00;99961.72;10111102;85;777086;-83
2021/01/06 17:23:57;;;;;;;165.12;59.60;;;;;;;1.80;100.00;99980.51;10028972;88;21167;-85
2021/01/06 17:39:02;;;;;;;232.37;82.33;;;;;;;1.72;100.00;99986.58;10032697;86;21069;-83
2021/01/06 17:54:08;;;;;;;249.70;87.08;;;;;;;1.72;100.00;99986.58;10034844;87;21151;-87
2021/01/06 18:09:18;;;;;;;208.43;61.10;;;;;;;1.86;100.00;99980.64;10096185;85;1228180;-83
2021/01/06 18:24:23;;;;;;;321.10;113.85;;;;;;;1.84;100.00;99981.17;10009809;86;21060;-85
2021/01/06 18:39:28;;;;;;;130.05;56.60;;;;;;;1.71;100.00;99987.48;10119959;85;408503;-84
2021/01/06 18:54:33;;;;;;;137.03;54.27;;;;;;;1.73;100.00;99978.34;10122582;87;21139;-85
2021/01/06 19:09:38;;;;;;;308.35;108.42;;;;;;;1.70;100.00;99987.11;9782828;85;395615;-84
2021/01/06 19:24:42;;;;;;;468.43;149.17;;;;;;;1.76;100.00;99978.19;9494642;86;136263;-83
2021/01/06 19:39:46;;;;;;;352.55;116.00;;;;;;;1.82;100.00;99976.53;10136873;85;346605;-83
2021/01/06 19:54:53;;;;;;;290.73;92.02;;;;;;;1.63;100.00;99975.45;10292431;83;21099;-82
2021/01/06 20:10:05;;;;;;;195.03;75.43;;;;;;;1.72;100.00;99970.23;10274373;85;359438;-84
2021/01/06 20:25:13;;;;;;;444.52;139.18;;;;;;;1.74;100.00;99948.54;10309425;85;337323;-83
2021/01/06 20:40:16;;;;;;;324.67;118.50;;;;;;;1.69;100.00;99941.94;9976836;85;1287523;-85
2021/01/06 20:55:21;;;;;;;211.57;73.80;;;;;;;1.74;100.00;99944.66;9889108;88;391196;-84
2021/01/06 21:10:25;;;;;;;346.00;110.25;;;;;;;1.76;100.00;99925.99;10181742;85;21089;-85
2021/01/06 21:25:29;;;;;;;293.00;102.50;;;;;;;1.62;100.00;99906.55;10233704;84;206228;-85
2021/01/06 21:40:33;;;;;;;252.10;92.37;;;;;;;1.72;100.00;99916.74;10162055;86;21048;-84
2021/01/06 21:55:37;;;;;;;234.32;85.22;;;;;;;1.76;100.00;99900.13;10167666;86;21301;-85
2021/01/06 22:10:42;;;;;;;259.37;94.60;;;;;;;1.71;100.00;99887.92;10123455;86;21167;-84
2021/01/06 22:25:48;;;;;;;158.52;49.45;;;;;;;1.70;100.00;99870.73;10107519;87;21125;-81
2021/01/06 22:40:52;;;;;;;87.60;35.28;;;;;;;1.60;100.00;99854.92;10121172;87;21194;-82
2021/01/06 22:55:56;;;;;;;115.35;47.10;;;;;;;1.59;100.00;99817.05;10171232;84;718447;-83
2021/01/06 23:11:00;;;;;;;107.58;42.30;;;;;;;1.61;100.00;99825.56;10073813;86;21101;-84
2021/01/06 23:26:05;;;;;;;84.95;35.17;;;;;;;1.61;100.00;99825.56;10118704;84;21504;-84
2021/01/06 23:41:10;;;;;;;131.72;51.10;;;;;;;1.65;100.00;99824.94;10089801;86;21533;-84
2021/01/06 23:56:15;;;;;;;165.45;58.92;;;;;;;1.57;100.00;99799.95;10242839;84;21580;-83
